PWSweather.com
Personal Weather Stations
Station Observations
IHTIMAN1
Neighbourhood 1, IhtimanBG 2050

Neighbourhood 1IhtimanBG 2050

Lat: 42.436852, Lon: 23.817921

Elevation: 2066

Station Type: Oregon Scientific WMR968

http://ihtiman-meteo.com

High Low Average
Temperature 91.1°F32.8°F 53.6°F12.0°F 70.9°F21.6°F
Dew Point 53.8°F12.1°F 43.6°F6.4°F 49.5°F9.7°F
Winds 18.4 mph -29.6 mph - Calm Calm 2.0 mph 3.2 mph
Wind Gusts 27.6 mph44.4 mph -- 2.9 mph4.7 mph
Humidity 89% 27% 52%
Pressure 30.21 in1023.00 in 30.12 in1020.00 in -
Precipitation 0.00 in0.00 in - -
Hour Temp Dew Point Humidity Winds Wind Gusts Pressure Precip Precip Rate Daily Precip Total
12:00 AM 61.3°F16.3°C 51.5°F10.8°C 70% 2.3 mph SSE3.7 kmh SSE 3.5 mph5.6 kmh 30.15 in1021.0 mb - 0.00 in0.0 mm 0.00 in0.0 mm
12:10 AM 61.2°F16.2°C 51.3°F10.7°C 70% Calm Calm 3.5 mph5.6 kmh 30.15 in1021.0 mb - 0.00 in0.0 mm 0.00 in0.0 mm
12:20 AM 60.9°F16.1°C 51.1°F10.6°C 70% Calm Calm -- 30.15 in1021.0 mb - 0.00 in0.0 mm 0.00 in0.0 mm
12:30 AM 60.6°F15.9°C 51.2°F10.7°C 71% Calm Calm -- 30.15 in1021.0 mb - 0.00 in0.0 mm 0.00 in0.0 mm
12:40 AM 60.3°F15.7°C 50.9°F10.5°C 71% Calm Calm -- 30.15 in1021.0 mb - 0.00 in0.0 mm 0.00 in0.0 mm
12:50 AM 59.7°F15.4°C 50.7°F10.4°C 72% Calm Calm -- 30.15 in1021.0 mb - 0.00 in0.0 mm 0.00 in0.0 mm
01:00 AM 59.3°F15.2°C 50.3°F10.2°C 72% Calm Calm -- 30.15 in1021.0 mb - 0.00 in0.0 mm 0.00 in0.0 mm
01:10 AM 59.0°F15.0°C 50.4°F10.2°C 73% Calm Calm -- 30.15 in1021.0 mb - 0.00 in0.0 mm 0.00 in0.0 mm
01:20 AM 58.8°F14.9°C 50.5°F10.3°C 74% Calm Calm -- 30.15 in1021.0 mb - 0.00 in0.0 mm 0.00 in0.0 mm
01:30 AM 58.8°F14.9°C 51.3°F10.7°C 76% Calm Calm -- 30.15 in1021.0 mb - 0.00 in0.0 mm 0.00 in0.0 mm
01:40 AM 58.8°F14.9°C 51.3°F10.7°C 76% Calm Calm -- 30.15 in1021.0 mb - 0.00 in0.0 mm 0.00 in0.0 mm
01:50 AM 58.8°F14.9°C 51.6°F10.9°C 77% Calm Calm -- 30.15 in1021.0 mb - 0.00 in0.0 mm 0.00 in0.0 mm
02:00 AM 59.0°F15.0°C 51.8°F11.0°C 77% Calm Calm -- 30.15 in1021.0 mb - 0.00 in0.0 mm 0.00 in0.0 mm
02:10 AM 59.2°F15.1°C 52.0°F11.1°C 77% Calm Calm -- 30.15 in1021.0 mb - 0.00 in0.0 mm 0.00 in0.0 mm
02:20 AM 59.2°F15.1°C 52.0°F11.1°C 77% Calm Calm -- 30.18 in1022.0 mb - 0.00 in0.0 mm 0.00 in0.0 mm
02:30 AM 59.0°F15.0°C 51.8°F11.0°C 77% Calm Calm -- 30.18 in1022.0 mb - 0.00 in0.0 mm 0.00 in0.0 mm
02:40 AM 59.0°F15.0°C 51.8°F11.0°C 77% Calm Calm -- 30.18 in1022.0 mb - 0.00 in0.0 mm 0.00 in0.0 mm
02:50 AM 58.8°F14.9°C 51.6°F10.9°C 77% Calm Calm -- 30.18 in1022.0 mb - 0.00 in0.0 mm 0.00 in0.0 mm
03:00 AM 58.8°F14.9°C 51.6°F10.9°C 77% Calm Calm -- 30.18 in1022.0 mb - 0.00 in0.0 mm 0.00 in0.0 mm
03:10 AM 58.6°F14.8°C 51.4°F10.8°C 77% Calm Calm -- 30.18 in1022.0 mb - 0.00 in0.0 mm 0.00 in0.0 mm
03:20 AM 58.3°F14.6°C 51.1°F10.6°C 77% Calm Calm -- 30.18 in1022.0 mb - 0.00 in0.0 mm 0.00 in0.0 mm
03:30 AM 58.1°F14.5°C 50.5°F10.3°C 76% Calm Calm -- 30.15 in1021.0 mb - 0.00 in0.0 mm 0.00 in0.0 mm
03:40 AM 57.9°F14.4°C 50.7°F10.4°C 77% Calm Calm -- 30.15 in1021.0 mb - 0.00 in0.0 mm 0.00 in0.0 mm
03:50 AM 57.7°F14.3°C 50.9°F10.5°C 78% Calm Calm -- 30.15 in1021.0 mb - 0.00 in0.0 mm 0.00 in0.0 mm
04:00 AM 57.9°F14.4°C 51.1°F10.6°C 78% Calm Calm -- 30.18 in1022.0 mb - 0.00 in0.0 mm 0.00 in0.0 mm
04:10 AM 57.7°F14.3°C 50.9°F10.5°C 78% Calm Calm -- 30.18 in1022.0 mb - 0.00 in0.0 mm 0.00 in0.0 mm
04:20 AM 57.6°F14.2°C 50.8°F10.4°C 78% Calm Calm -- 30.15 in1021.0 mb - 0.00 in0.0 mm 0.00 in0.0 mm
04:30 AM 57.2°F14.0°C 50.0°F10.0°C 77% Calm Calm -- 30.18 in1022.0 mb - 0.00 in0.0 mm 0.00 in0.0 mm
04:40 AM 56.5°F13.6°C 49.4°F9.7°C 77% Calm Calm -- 30.18 in1022.0 mb - 0.00 in0.0 mm 0.00 in0.0 mm
04:50 AM 55.8°F13.2°C 48.7°F9.3°C 77% Calm Calm -- 30.18 in1022.0 mb - 0.00 in0.0 mm 0.00 in0.0 mm
05:00 AM 55.0°F12.8°C 48.3°F9.1°C 78% Calm Calm -- 30.18 in1022.0 mb - 0.00 in0.0 mm 0.00 in0.0 mm
05:10 AM 54.6°F12.6°C 48.6°F9.2°C 80% Calm Calm -- 30.18 in1022.0 mb - 0.00 in0.0 mm 0.00 in0.0 mm
05:20 AM 54.3°F12.4°C 48.6°F9.2°C 81% Calm Calm -- 30.18 in1022.0 mb - 0.00 in0.0 mm 0.00 in0.0 mm
05:30 AM 54.0°F12.2°C 48.6°F9.2°C 82% Calm Calm -- 30.18 in1022.0 mb - 0.00 in0.0 mm 0.00 in0.0 mm
05:40 AM 54.0°F12.2°C 48.9°F9.4°C 83% Calm Calm -- 30.18 in1022.0 mb - 0.00 in0.0 mm 0.00 in0.0 mm
05:50 AM 53.8°F12.1°C 49.1°F9.5°C 84% Calm Calm -- 30.18 in1022.0 mb - 0.00 in0.0 mm 0.00 in0.0 mm
06:00 AM 54.0°F12.2°C 49.2°F9.6°C 84% Calm Calm -- 30.18 in1022.0 mb - 0.00 in0.0 mm 0.00 in0.0 mm
06:10 AM 53.8°F12.1°C 49.4°F9.7°C 85% Calm Calm -- 30.18 in1022.0 mb - 0.00 in0.0 mm 0.00 in0.0 mm
06:20 AM 53.8°F12.1°C 49.7°F9.8°C 86% Calm Calm -- 30.18 in1022.0 mb - 0.00 in0.0 mm 0.00 in0.0 mm
06:30 AM 53.6°F12.0°C 49.5°F9.7°C 86% Calm Calm -- 30.15 in1021.0 mb - 0.00 in0.0 mm 0.00 in0.0 mm
06:40 AM 53.8°F12.1°C 50.0°F10.0°C 87% Calm Calm -- 30.15 in1021.0 mb - 0.00 in0.0 mm 0.00 in0.0 mm
06:50 AM 54.0°F12.2°C 50.2°F10.1°C 87% Calm Calm -- 30.18 in1022.0 mb - 0.00 in0.0 mm 0.00 in0.0 mm
07:00 AM 55.1°F12.8°C 51.9°F11.1°C 89% Calm Calm -- 30.18 in1022.0 mb - 0.00 in0.0 mm 0.00 in0.0 mm
07:10 AM 56.0°F13.3°C 52.8°F11.6°C 89% 1.2 mph WSW1.9 kmh WSW 3.5 mph5.6 kmh 30.18 in1022.0 mb - 0.00 in0.0 mm 0.00 in0.0 mm
07:20 AM 56.8°F13.8°C 53.3°F11.8°C 88% 1.2 mph WSW1.9 kmh WSW 3.5 mph5.6 kmh 30.18 in1022.0 mb - 0.00 in0.0 mm 0.00 in0.0 mm
07:30 AM 57.6°F14.2°C 53.5°F11.9°C 86% 2.3 mph SW3.7 kmh SW 3.5 mph5.6 kmh 30.18 in1022.0 mb - 0.00 in0.0 mm 0.00 in0.0 mm
07:40 AM 58.6°F14.8°C 53.8°F12.1°C 84% Calm Calm -- 30.18 in1022.0 mb - 0.00 in0.0 mm 0.00 in0.0 mm
07:50 AM 60.0°F15.6°C 53.1°F11.7°C 78% Calm Calm -- 30.18 in1022.0 mb - 0.00 in0.0 mm 0.00 in0.0 mm
08:00 AM 60.9°F16.1°C 53.3°F11.8°C 76% Calm Calm -- 30.18 in1022.0 mb - 0.00 in0.0 mm 0.00 in0.0 mm
08:10 AM 62.1°F16.7°C 53.3°F11.8°C 73% Calm Calm -- 30.18 in1022.0 mb - 0.00 in0.0 mm 0.00 in0.0 mm
08:20 AM 63.1°F17.3°C 53.2°F11.8°C 70% Calm Calm -- 30.18 in1022.0 mb - 0.00 in0.0 mm 0.00 in0.0 mm
08:30 AM 64.5°F18.1°C 53.7°F12.1°C 68% Calm Calm -- 30.18 in1022.0 mb - 0.00 in0.0 mm 0.00 in0.0 mm
08:40 AM 66.2°F19.0°C 53.7°F12.1°C 64% Calm Calm -- 30.18 in1022.0 mb - 0.00 in0.0 mm 0.00 in0.0 mm
08:50 AM 68.0°F20.0°C 53.6°F12.0°C 60% 1.2 mph W1.9 kmh W 2.3 mph3.7 kmh 30.18 in1022.0 mb - 0.00 in0.0 mm 0.00 in0.0 mm
09:00 AM 69.6°F20.9°C 53.2°F11.8°C 56% Calm Calm -- 30.18 in1022.0 mb - 0.00 in0.0 mm 0.00 in0.0 mm
09:10 AM 72.0°F22.2°C 53.4°F11.9°C 52% Calm Calm -- 30.18 in1022.0 mb - 0.00 in0.0 mm 0.00 in0.0 mm
09:20 AM 72.7°F22.6°C 52.4°F11.3°C 49% 2.3 mph S3.7 kmh S 3.5 mph5.6 kmh 30.18 in1022.0 mb - 0.00 in0.0 mm 0.00 in0.0 mm
09:30 AM 73.7°F23.2°C 52.8°F11.6°C 48% 1.2 mph SSE1.9 kmh SSE 3.5 mph5.6 kmh 30.18 in1022.0 mb - 0.00 in0.0 mm 0.00 in0.0 mm
09:40 AM 74.5°F23.6°C 52.3°F11.3°C 46% 2.3 mph S3.7 kmh S 3.5 mph5.6 kmh 30.18 in1022.0 mb - 0.00 in0.0 mm 0.00 in0.0 mm
09:50 AM 75.2°F24.0°C 52.4°F11.3°C 45% 3.5 mph SE5.6 kmh SE 5.8 mph9.3 kmh 30.18 in1022.0 mb - 0.00 in0.0 mm 0.00 in0.0 mm
10:00 AM 75.6°F24.2°C 51.5°F10.8°C 43% 2.3 mph SE3.7 kmh SE 2.3 mph3.7 kmh 30.18 in1022.0 mb - 0.00 in0.0 mm 0.00 in0.0 mm
10:10 AM 77.7°F25.4°C 52.7°F11.5°C 42% 4.6 mph S7.4 kmh S 5.8 mph9.3 kmh 30.18 in1022.0 mb - 0.00 in0.0 mm 0.00 in0.0 mm
10:20 AM 78.8°F26.0°C 52.4°F11.3°C 40% 3.5 mph SE5.6 kmh SE 6.9 mph11.1 kmh 30.18 in1022.0 mb - 0.00 in0.0 mm 0.00 in0.0 mm
10:30 AM 79.2°F26.2°C 52.1°F11.2°C 39% 3.5 mph SSE5.6 kmh SSE 5.8 mph9.3 kmh 30.18 in1022.0 mb - 0.00 in0.0 mm 0.00 in0.0 mm
10:50 AM 81.1°F27.3°C 52.4°F11.3°C 37% 8.1 mph SSW13.0 kmh SSW 5.8 mph9.3 kmh 30.18 in1022.0 mb - 0.00 in0.0 mm 0.00 in0.0 mm
11:00 AM 81.1°F27.3°C 50.1°F10.1°C 34% 4.6 mph E7.4 kmh E 5.8 mph9.3 kmh 30.18 in1022.0 mb - 0.00 in0.0 mm 0.00 in0.0 mm
11:10 AM 81.3°F27.4°C 49.5°F9.7°C 33% 4.6 mph E7.4 kmh E 3.5 mph5.6 kmh 30.18 in1022.0 mb - 0.00 in0.0 mm 0.00 in0.0 mm
11:20 AM 82.2°F27.9°C 50.2°F10.1°C 33% 4.6 mph E7.4 kmh E 3.5 mph5.6 kmh 30.18 in1022.0 mb - 0.00 in0.0 mm 0.00 in0.0 mm
11:30 AM 82.6°F28.1°C 49.7°F9.8°C 32% 4.6 mph E7.4 kmh E 3.5 mph5.6 kmh 30.18 in1022.0 mb - 0.00 in0.0 mm 0.00 in0.0 mm
11:40 AM 82.6°F28.1°C 48.9°F9.4°C 31% 2.3 mph SE3.7 kmh SE 5.8 mph9.3 kmh 30.18 in1022.0 mb - 0.00 in0.0 mm 0.00 in0.0 mm
11:50 AM 82.3°F27.9°C 48.7°F9.3°C 31% 1.2 mph N1.9 kmh N 3.5 mph5.6 kmh 30.18 in1022.0 mb - 0.00 in0.0 mm 0.00 in0.0 mm
12:00 PM 84.6°F29.2°C 50.6°F10.3°C 31% 5.8 mph S9.3 kmh S 3.5 mph5.6 kmh 30.18 in1022.0 mb - 0.00 in0.0 mm 0.00 in0.0 mm
12:10 PM 83.4°F28.6°C 49.6°F9.8°C 31% 2.3 mph SSE3.7 kmh SSE 3.5 mph5.6 kmh 30.18 in1022.0 mb - 0.00 in0.0 mm 0.00 in0.0 mm
12:20 PM 84.8°F29.3°C 50.8°F10.4°C 31% 5.8 mph S9.3 kmh S 10.4 mph16.7 kmh 30.18 in1022.0 mb - 0.00 in0.0 mm 0.00 in0.0 mm
12:30 PM 84.3°F29.1°C 50.4°F10.2°C 31% 5.8 mph ESE9.3 kmh ESE 8.1 mph13.0 kmh 30.18 in1022.0 mb - 0.00 in0.0 mm 0.00 in0.0 mm
12:40 PM 85.3°F29.6°C 50.3°F10.2°C 30% 6.9 mph SSE11.1 kmh SSE 9.2 mph14.8 kmh 30.18 in1022.0 mb - 0.00 in0.0 mm 0.00 in0.0 mm
12:50 PM 85.6°F29.8°C 51.5°F10.8°C 31% 4.6 mph S7.4 kmh S 8.1 mph13.0 kmh 30.18 in1022.0 mb - 0.00 in0.0 mm 0.00 in0.0 mm
01:00 PM 85.9°F29.9°C 50.8°F10.4°C 30% 3.5 mph ESE5.6 kmh ESE 8.1 mph13.0 kmh 30.18 in1022.0 mb - 0.00 in0.0 mm 0.00 in0.0 mm
01:10 PM 87.0°F30.6°C 51.8°F11.0°C 30% 3.5 mph S5.6 kmh S 3.5 mph5.6 kmh 30.18 in1022.0 mb - 0.00 in0.0 mm 0.00 in0.0 mm
01:20 PM 86.0°F30.0°C 50.0°F10.0°C 29% 3.5 mph SSW5.6 kmh SSW 3.5 mph5.6 kmh 30.18 in1022.0 mb - 0.00 in0.0 mm 0.00 in0.0 mm
01:30 PM 86.4°F30.2°C 51.3°F10.7°C 30% 3.5 mph SE5.6 kmh SE 5.8 mph9.3 kmh 30.15 in1021.0 mb - 0.00 in0.0 mm 0.00 in0.0 mm
01:40 PM 86.9°F30.5°C 50.8°F10.4°C 29% 8.1 mph E13.0 kmh E 6.9 mph11.1 kmh 30.15 in1021.0 mb - 0.00 in0.0 mm 0.00 in0.0 mm
01:50 PM 87.4°F30.8°C 51.3°F10.7°C 29% 4.6 mph SE7.4 kmh SE 9.2 mph14.8 kmh 30.15 in1021.0 mb - 0.00 in0.0 mm 0.00 in0.0 mm
02:00 PM 88.9°F31.6°C 52.5°F11.4°C 29% 4.6 mph SE7.4 kmh SE 5.8 mph9.3 kmh 30.15 in1021.0 mb - 0.00 in0.0 mm 0.00 in0.0 mm
02:10 PM 88.5°F31.4°C 51.3°F10.7°C 28% 3.5 mph SE5.6 kmh SE 5.8 mph9.3 kmh 30.15 in1021.0 mb - 0.00 in0.0 mm 0.00 in0.0 mm
02:20 PM 88.8°F31.6°C 51.5°F10.8°C 28% 5.8 mph S9.3 kmh S 9.2 mph14.8 kmh 30.15 in1021.0 mb - 0.00 in0.0 mm 0.00 in0.0 mm
02:30 PM 89.4°F31.9°C 52.0°F11.1°C 28% 3.5 mph SW5.6 kmh SW 4.6 mph7.4 kmh 30.15 in1021.0 mb - 0.00 in0.0 mm 0.00 in0.0 mm
02:40 PM 88.4°F31.3°C 51.2°F10.7°C 28% 5.8 mph SE9.3 kmh SE 6.9 mph11.1 kmh 30.15 in1021.0 mb - 0.00 in0.0 mm 0.00 in0.0 mm
02:50 PM 88.9°F31.6°C 51.6°F10.9°C 28% 2.3 mph S3.7 kmh S 5.8 mph9.3 kmh 30.15 in1021.0 mb - 0.00 in0.0 mm 0.00 in0.0 mm
03:00 PM 89.4°F31.9°C 52.0°F11.1°C 28% 3.5 mph SW5.6 kmh SW 4.6 mph7.4 kmh 30.15 in1021.0 mb - 0.00 in0.0 mm 0.00 in0.0 mm
03:10 PM 89.1°F31.7°C 51.8°F11.0°C 28% 18.4 mph SSE29.6 kmh SSE 27.6 mph44.4 kmh 30.15 in1021.0 mb - 0.00 in0.0 mm 0.00 in0.0 mm
03:20 PM 91.1°F32.8°C 53.5°F11.9°C 28% 3.5 mph NNE5.6 kmh NNE 5.8 mph9.3 kmh 30.15 in1021.0 mb - 0.00 in0.0 mm 0.00 in0.0 mm
03:30 PM 90.5°F32.5°C 52.0°F11.1°C 27% 4.6 mph SE7.4 kmh SE 5.8 mph9.3 kmh 30.15 in1021.0 mb - 0.00 in0.0 mm 0.00 in0.0 mm
03:40 PM 86.1°F30.1°C 50.1°F10.1°C 29% Calm Calm -- 30.15 in1021.0 mb - 0.00 in0.0 mm 0.00 in0.0 mm
03:50 PM 85.3°F29.6°C 49.5°F9.7°C 29% Calm Calm 3.5 mph5.6 kmh 30.15 in1021.0 mb - 0.00 in0.0 mm 0.00 in0.0 mm
04:00 PM 88.0°F31.1°C 50.8°F10.4°C 28% 2.3 mph SE3.7 kmh SE 3.5 mph5.6 kmh 30.15 in1021.0 mb - 0.00 in0.0 mm 0.00 in0.0 mm
04:10 PM 88.5°F31.4°C 51.3°F10.7°C 28% 5.8 mph ESE9.3 kmh ESE 8.1 mph13.0 kmh 30.15 in1021.0 mb - 0.00 in0.0 mm 0.00 in0.0 mm
04:20 PM 88.5°F31.4°C 51.3°F10.7°C 28% 1.2 mph S1.9 kmh S 8.1 mph13.0 kmh 30.15 in1021.0 mb - 0.00 in0.0 mm 0.00 in0.0 mm
04:30 PM 87.6°F30.9°C 50.5°F10.3°C 28% 5.8 mph SSE9.3 kmh SSE 8.1 mph13.0 kmh 30.15 in1021.0 mb - 0.00 in0.0 mm 0.00 in0.0 mm
04:40 PM 87.6°F30.9°C 50.5°F10.3°C 28% 5.8 mph SSW9.3 kmh SSW 8.1 mph13.0 kmh 30.15 in1021.0 mb - 0.00 in0.0 mm 0.00 in0.0 mm
04:50 PM 87.1°F30.6°C 50.0°F10.0°C 28% 3.5 mph SE5.6 kmh SE 5.8 mph9.3 kmh 30.15 in1021.0 mb - 0.00 in0.0 mm 0.00 in0.0 mm
05:00 PM 86.4°F30.2°C 49.4°F9.7°C 28% 1.2 mph SE1.9 kmh SE 5.8 mph9.3 kmh 30.15 in1021.0 mb - 0.00 in0.0 mm 0.00 in0.0 mm
05:10 PM 85.5°F29.7°C 48.7°F9.3°C 28% 5.8 mph S9.3 kmh S 5.8 mph9.3 kmh 30.15 in1021.0 mb - 0.00 in0.0 mm 0.00 in0.0 mm
05:20 PM 84.6°F29.2°C 48.8°F9.3°C 29% 8.1 mph S13.0 kmh S 10.4 mph16.7 kmh 30.12 in1020.0 mb - 0.00 in0.0 mm 0.00 in0.0 mm
05:30 PM 83.6°F28.7°C 48.0°F8.9°C 29% 5.8 mph SSE9.3 kmh SSE 11.5 mph18.5 kmh 30.15 in1021.0 mb - 0.00 in0.0 mm 0.00 in0.0 mm
05:40 PM 83.1°F28.4°C 47.5°F8.6°C 29% 5.8 mph SE9.3 kmh SE 10.4 mph16.7 kmh 30.15 in1021.0 mb - 0.00 in0.0 mm 0.00 in0.0 mm
05:50 PM 82.6°F28.1°C 47.1°F8.4°C 29% 4.6 mph SE7.4 kmh SE 5.8 mph9.3 kmh 30.15 in1021.0 mb - 0.00 in0.0 mm 0.00 in0.0 mm
06:00 PM 81.7°F27.6°C 47.2°F8.4°C 30% 4.6 mph SSE7.4 kmh SSE 5.8 mph9.3 kmh 30.15 in1021.0 mb - 0.00 in0.0 mm 0.00 in0.0 mm
06:10 PM 81.0°F27.2°C 46.6°F8.1°C 30% 5.8 mph SE9.3 kmh SE 8.1 mph13.0 kmh 30.15 in1021.0 mb - 0.00 in0.0 mm 0.00 in0.0 mm
06:20 PM 80.4°F26.9°C 46.1°F7.8°C 30% 5.8 mph SE9.3 kmh SE 8.1 mph13.0 kmh 30.15 in1021.0 mb - 0.00 in0.0 mm 0.00 in0.0 mm
06:30 PM 79.7°F26.5°C 45.5°F7.5°C 30% 3.5 mph SE5.6 kmh SE 3.5 mph5.6 kmh 30.15 in1021.0 mb - 0.00 in0.0 mm 0.00 in0.0 mm
06:40 PM 79.0°F26.1°C 45.8°F7.7°C 31% 3.5 mph S5.6 kmh S 3.5 mph5.6 kmh 30.15 in1021.0 mb - 0.00 in0.0 mm 0.00 in0.0 mm
07:00 PM 77.7°F25.4°C 44.6°F7.0°C 31% 2.3 mph SE3.7 kmh SE 3.5 mph5.6 kmh 30.15 in1021.0 mb - 0.00 in0.0 mm 0.00 in0.0 mm
07:10 PM 77.2°F25.1°C 44.2°F6.8°C 31% 3.5 mph SE5.6 kmh SE 4.6 mph7.4 kmh 30.15 in1021.0 mb - 0.00 in0.0 mm 0.00 in0.0 mm
07:20 PM 76.6°F24.8°C 44.5°F6.9°C 32% Calm Calm -- 30.15 in1021.0 mb - 0.00 in0.0 mm 0.00 in0.0 mm
07:30 PM 75.9°F24.4°C 43.9°F6.6°C 32% Calm Calm 2.3 mph3.7 kmh 30.15 in1021.0 mb - 0.00 in0.0 mm 0.00 in0.0 mm
07:40 PM 75.2°F24.0°C 44.1°F6.7°C 33% 3.5 mph E5.6 kmh E 3.5 mph5.6 kmh 30.15 in1021.0 mb - 0.00 in0.0 mm 0.00 in0.0 mm
07:50 PM 74.8°F23.8°C 43.8°F6.6°C 33% 3.5 mph SE5.6 kmh SE 5.8 mph9.3 kmh 30.18 in1022.0 mb - 0.00 in0.0 mm 0.00 in0.0 mm
08:00 PM 74.7°F23.7°C 43.6°F6.4°C 33% 3.5 mph SE5.6 kmh SE 3.5 mph5.6 kmh 30.18 in1022.0 mb - 0.00 in0.0 mm 0.00 in0.0 mm
08:10 PM 74.3°F23.5°C 44.1°F6.7°C 34% 2.3 mph E3.7 kmh E 3.5 mph5.6 kmh 30.18 in1022.0 mb - 0.00 in0.0 mm 0.00 in0.0 mm
08:20 PM 73.5°F23.1°C 44.1°F6.7°C 35% 3.5 mph ESE5.6 kmh ESE 5.8 mph9.3 kmh 30.18 in1022.0 mb - 0.00 in0.0 mm 0.00 in0.0 mm
08:30 PM 72.9°F22.7°C 44.3°F6.8°C 36% Calm Calm -- 30.18 in1022.0 mb - 0.00 in0.0 mm 0.00 in0.0 mm
08:40 PM 72.2°F22.3°C 43.8°F6.6°C 36% 2.3 mph SE3.7 kmh SE 3.5 mph5.6 kmh 30.18 in1022.0 mb - 0.00 in0.0 mm 0.00 in0.0 mm
08:50 PM 71.6°F22.0°C 43.9°F6.6°C 37% Calm Calm -- 30.18 in1022.0 mb - 0.00 in0.0 mm 0.00 in0.0 mm
09:00 PM 71.1°F21.7°C 44.8°F7.1°C 39% Calm Calm -- 30.18 in1022.0 mb - 0.00 in0.0 mm 0.00 in0.0 mm
09:10 PM 70.5°F21.4°C 44.4°F6.9°C 39% Calm Calm -- 30.18 in1022.0 mb - 0.00 in0.0 mm 0.00 in0.0 mm
09:20 PM 69.8°F21.0°C 44.4°F6.9°C 40% Calm Calm -- 30.21 in1023.0 mb - 0.00 in0.0 mm 0.00 in0.0 mm
09:30 PM 69.3°F20.7°C 44.5°F6.9°C 41% Calm Calm -- 30.21 in1023.0 mb - 0.00 in0.0 mm 0.00 in0.0 mm
09:40 PM 68.6°F20.3°C 44.6°F7.0°C 42% Calm Calm -- 30.21 in1023.0 mb - 0.00 in0.0 mm 0.00 in0.0 mm
09:50 PM 68.1°F20.1°C 44.7°F7.1°C 43% Calm Calm 3.5 mph5.6 kmh 30.21 in1023.0 mb - 0.00 in0.0 mm 0.00 in0.0 mm
10:00 PM 67.2°F19.6°C 45.2°F7.3°C 45% Calm Calm -- 30.21 in1023.0 mb - 0.00 in0.0 mm 0.00 in0.0 mm
10:10 PM 66.4°F19.1°C 45.5°F7.5°C 47% Calm Calm -- 30.21 in1023.0 mb - 0.00 in0.0 mm 0.00 in0.0 mm
10:20 PM 65.7°F18.7°C 45.4°F7.4°C 48% Calm Calm -- 30.21 in1023.0 mb - 0.00 in0.0 mm 0.00 in0.0 mm
10:30 PM 65.2°F18.4°C 45.5°F7.5°C 49% Calm Calm -- 30.21 in1023.0 mb - 0.00 in0.0 mm 0.00 in0.0 mm
10:40 PM 64.6°F18.1°C 45.6°F7.6°C 50% Calm Calm -- 30.21 in1023.0 mb - 0.00 in0.0 mm 0.00 in0.0 mm
10:50 PM 64.3°F17.9°C 46.3°F7.9°C 52% 1.2 mph WSW1.9 kmh WSW -- 30.21 in1023.0 mb - 0.00 in0.0 mm 0.00 in0.0 mm
11:00 PM 63.6°F17.6°C 46.1°F7.8°C 53% 1.2 mph WSW1.9 kmh WSW 3.5 mph5.6 kmh 30.21 in1023.0 mb - 0.00 in0.0 mm 0.00 in0.0 mm
11:10 PM 62.4°F16.9°C 46.0°F7.8°C 55% Calm Calm -- 30.21 in1023.0 mb - 0.00 in0.0 mm 0.00 in0.0 mm
11:20 PM 61.5°F16.4°C 46.1°F7.8°C 57% Calm Calm -- 30.21 in1023.0 mb - 0.00 in0.0 mm 0.00 in0.0 mm
11:30 PM 60.8°F16.0°C 46.4°F8.0°C 59% Calm Calm -- 30.21 in1023.0 mb - 0.00 in0.0 mm 0.00 in0.0 mm
11:40 PM 60.4°F15.8°C 46.5°F8.1°C 60% Calm Calm -- 30.21 in1023.0 mb - 0.00 in0.0 mm 0.00 in0.0 mm
11:50 PM 60.0°F15.6°C 47.3°F8.5°C 63% Calm Calm -- 30.21 in1023.0 mb - 0.00 in0.0 mm 0.00 in0.0 mm